BWA241 TGPY-TTPP
Flight info
| Callsign | BWA241 |
|---|---|
| Flight time | 0h 28m |
| Altitude | 12000 |
| Route | GND A324 DUKLA DCT NAPKO DCT LEXOR DCT TALUS |
| Aircraft | AT76/M-SDFGIRY/S |
Departure
| Time | 2026-04-26 21:48 |
|---|---|
| Airport | Maurice Bishop International Airport (TGPY) |
Arrival
| Time | 2026-04-26 22:16 |
|---|---|
| Airport | Piarco International Airport (TTPP) |
| Time | Latitude | Longitude | Altitude | Speed | Heading |
|---|---|---|---|---|---|
| 2026-04-26 21:41 | 12.00662 | -61.78594 | 39 ft | 0 kts | 4° |
| 2026-04-26 21:43 | 12.00663 | -61.78594 | 39 ft | 0 kts | 10° |
| 2026-04-26 21:43 | 12.00664 | -61.78592 | 39 ft | 1 kts | 39° |
| 2026-04-26 21:43 | 12.00662 | -61.78588 | 39 ft | 0 kts | 95° |
| 2026-04-26 21:43 | 12.00652 | -61.78582 | 39 ft | 5 kts | 155° |
| 2026-04-26 21:44 | 12.00596 | -61.78586 | 39 ft | 11 kts | 190° |
| 2026-04-26 21:44 | 12.00504 | -61.78601 | 40 ft | 15 kts | 180° |
| 2026-04-26 21:44 | 12.00418 | -61.78617 | 42 ft | 12 kts | 228° |
| 2026-04-26 21:44 | 12.00408 | -61.78661 | 42 ft | 15 kts | 269° |
| 2026-04-26 21:45 | 12.00407 | -61.78717 | 42 ft | 19 kts | 269° |
| 2026-04-26 21:45 | 12.00410 | -61.78900 | 41 ft | 31 kts | 270° |
| 2026-04-26 21:46 | 12.00418 | -61.79144 | 40 ft | 38 kts | 269° |
| 2026-04-26 21:46 | 12.00412 | -61.79437 | 34 ft | 44 kts | 271° |
| 2026-04-26 21:46 | 12.00417 | -61.79745 | 29 ft | 33 kts | 269° |
| 2026-04-26 21:46 | 12.00447 | -61.79867 | 28 ft | 9 kts | 229° |
| 2026-04-26 21:47 | 12.00416 | -61.79835 | 27 ft | 14 kts | 100° |
| 2026-04-26 21:47 | 12.00414 | -61.79632 | 31 ft | 54 kts | 90° |
| 2026-04-26 21:47 | 12.00411 | -61.79031 | 43 ft | 111 kts | 91° |
| 2026-04-26 21:47 | 12.00365 | -61.78197 | 446 ft | 123 kts | 99° |
| 2026-04-26 21:48 | 12.00308 | -61.77220 | 734 ft | 143 kts | 97° |
| 2026-04-26 21:48 | 11.99924 | -61.76259 | 1195 ft | 154 kts | 129° |
| 2026-04-26 21:48 | 11.98881 | -61.75829 | 1511 ft | 181 kts | 178° |
| 2026-04-26 21:48 | 11.97564 | -61.76023 | 1840 ft | 197 kts | 186° |
| 2026-04-26 21:49 | 11.96167 | -61.76214 | 2125 ft | 214 kts | 183° |
| 2026-04-26 21:49 | 11.94641 | -61.76380 | 2421 ft | 223 kts | 181° |
| 2026-04-26 21:49 | 11.93425 | -61.76434 | 2650 ft | 227 kts | 177° |
| 2026-04-26 21:49 | 11.91830 | -61.76341 | 2982 ft | 229 kts | 170° |
| 2026-04-26 21:50 | 11.90269 | -61.76057 | 3376 ft | 228 kts | 164° |
| 2026-04-26 21:50 | 11.88741 | -61.75662 | 3780 ft | 228 kts | 162° |
| 2026-04-26 21:50 | 11.87204 | -61.75230 | 4196 ft | 228 kts | 162° |
| 2026-04-26 21:50 | 11.85688 | -61.74804 | 4622 ft | 227 kts | 162° |
| 2026-04-26 21:51 | 11.84160 | -61.74386 | 5024 ft | 227 kts | 163° |
| 2026-04-26 21:51 | 11.82631 | -61.73986 | 5442 ft | 227 kts | 163° |
| 2026-04-26 21:51 | 11.81094 | -61.73589 | 5818 ft | 229 kts | 163° |
| 2026-04-26 21:51 | 11.79546 | -61.73194 | 6156 ft | 231 kts | 163° |
| 2026-04-26 21:52 | 11.77966 | -61.72796 | 6497 ft | 233 kts | 164° |
| 2026-04-26 21:52 | 11.76394 | -61.72400 | 6821 ft | 234 kts | 164° |
| 2026-04-26 21:52 | 11.74813 | -61.72003 | 7147 ft | 235 kts | 164° |
| 2026-04-26 21:52 | 11.73226 | -61.71600 | 7475 ft | 236 kts | 164° |
| 2026-04-26 21:53 | 11.71620 | -61.71183 | 7816 ft | 236 kts | 163° |
| 2026-04-26 21:53 | 11.70031 | -61.70771 | 8148 ft | 236 kts | 164° |
| 2026-04-26 21:53 | 11.68441 | -61.70360 | 8485 ft | 236 kts | 164° |
| 2026-04-26 21:53 | 11.66858 | -61.69953 | 8835 ft | 236 kts | 164° |
| 2026-04-26 21:54 | 11.65273 | -61.69546 | 9182 ft | 235 kts | 164° |
| 2026-04-26 21:54 | 11.63695 | -61.69140 | 9533 ft | 235 kts | 164° |
| 2026-04-26 21:54 | 11.62106 | -61.68733 | 9890 ft | 235 kts | 164° |
| 2026-04-26 21:54 | 11.60524 | -61.68325 | 10198 ft | 235 kts | 164° |
| 2026-04-26 21:55 | 11.58931 | -61.67917 | 10498 ft | 236 kts | 164° |
| 2026-04-26 21:55 | 11.57330 | -61.67506 | 10803 ft | 237 kts | 164° |
| 2026-04-26 21:55 | 11.55732 | -61.67093 | 11106 ft | 237 kts | 164° |
| 2026-04-26 21:55 | 11.54130 | -61.66682 | 11416 ft | 237 kts | 164° |
| 2026-04-26 21:56 | 11.52521 | -61.66269 | 11698 ft | 239 kts | 164° |
| 2026-04-26 21:56 | 11.50898 | -61.65852 | 11938 ft | 242 kts | 164° |
| 2026-04-26 21:56 | 11.49278 | -61.65438 | 12183 ft | 244 kts | 164° |
| 2026-04-26 21:56 | 11.47621 | -61.65017 | 12412 ft | 246 kts | 164° |
| 2026-04-26 21:57 | 11.45947 | -61.64591 | 12585 ft | 249 kts | 164° |
| 2026-04-26 21:57 | 11.44235 | -61.64155 | 12764 ft | 252 kts | 164° |
| 2026-04-26 21:57 | 11.42543 | -61.63722 | 12935 ft | 254 kts | 164° |
| 2026-04-26 21:57 | 11.40815 | -61.63272 | 13110 ft | 255 kts | 164° |
| 2026-04-26 21:58 | 11.39094 | -61.62821 | 13185 ft | 259 kts | 164° |
| 2026-04-26 21:58 | 11.37333 | -61.62365 | 13267 ft | 261 kts | 164° |
| 2026-04-26 21:58 | 11.35533 | -61.62012 | 13350 ft | 264 kts | 170° |
| 2026-04-26 21:58 | 11.33720 | -61.61795 | 13338 ft | 268 kts | 172° |
| 2026-04-26 21:59 | 11.31844 | -61.61577 | 13193 ft | 277 kts | 171° |
| 2026-04-26 21:59 | 11.29895 | -61.61321 | 13042 ft | 283 kts | 170° |
| 2026-04-26 21:59 | 11.27952 | -61.61032 | 12954 ft | 285 kts | 170° |
| 2026-04-26 21:59 | 11.25987 | -61.60740 | 13043 ft | 281 kts | 170° |
| 2026-04-26 22:00 | 11.24059 | -61.60453 | 13043 ft | 282 kts | 170° |
| 2026-04-26 22:00 | 11.22115 | -61.60161 | 12972 ft | 284 kts | 170° |
| 2026-04-26 22:00 | 11.20157 | -61.59870 | 12963 ft | 281 kts | 170° |
| 2026-04-26 22:00 | 11.18218 | -61.59577 | 12683 ft | 285 kts | 169° |
| 2026-04-26 22:01 | 11.16305 | -61.59291 | 12447 ft | 273 kts | 170° |
| 2026-04-26 22:01 | 11.14444 | -61.59017 | 12192 ft | 264 kts | 170° |
| 2026-04-26 22:01 | 11.12644 | -61.58749 | 11911 ft | 259 kts | 169° |
| 2026-04-26 22:01 | 11.10903 | -61.58490 | 11666 ft | 253 kts | 169° |
| 2026-04-26 22:02 | 11.09147 | -61.58228 | 11352 ft | 251 kts | 169° |
| 2026-04-26 22:02 | 11.08010 | -61.58058 | 11139 ft | 251 kts | 169° |
| 2026-04-26 22:02 | 11.05708 | -61.57713 | 10699 ft | 251 kts | 169° |
| 2026-04-26 22:02 | 11.03963 | -61.57453 | 10377 ft | 250 kts | 169° |
| 2026-04-26 22:03 | 11.02238 | -61.57196 | 10058 ft | 250 kts | 169° |
| 2026-04-26 22:03 | 11.00531 | -61.56940 | 9730 ft | 250 kts | 169° |
| 2026-04-26 22:03 | 10.98822 | -61.56684 | 9389 ft | 249 kts | 169° |
| 2026-04-26 22:03 | 10.97106 | -61.56429 | 9034 ft | 249 kts | 169° |
| 2026-04-26 22:04 | 10.95376 | -61.56170 | 8690 ft | 249 kts | 169° |
| 2026-04-26 22:04 | 10.93728 | -61.55926 | 8349 ft | 229 kts | 169° |
| 2026-04-26 22:04 | 10.92207 | -61.55697 | 7953 ft | 215 kts | 169° |
| 2026-04-26 22:04 | 10.90762 | -61.55481 | 7570 ft | 206 kts | 169° |
| 2026-04-26 22:05 | 10.89354 | -61.55271 | 7182 ft | 200 kts | 169° |
| 2026-04-26 22:05 | 10.88001 | -61.55066 | 6811 ft | 196 kts | 169° |
| 2026-04-26 22:05 | 10.86664 | -61.54865 | 6435 ft | 193 kts | 169° |
| 2026-04-26 22:05 | 10.85355 | -61.54664 | 6053 ft | 191 kts | 168° |
| 2026-04-26 22:06 | 10.84048 | -61.54455 | 5709 ft | 187 kts | 168° |
| 2026-04-26 22:06 | 10.82777 | -61.54255 | 5395 ft | 183 kts | 168° |
| 2026-04-26 22:06 | 10.81523 | -61.54054 | 5077 ft | 180 kts | 168° |
| 2026-04-26 22:06 | 10.80268 | -61.53861 | 4766 ft | 189 kts | 168° |
| 2026-04-26 22:07 | 10.78948 | -61.53662 | 4567 ft | 192 kts | 168° |
| 2026-04-26 22:07 | 10.77630 | -61.53464 | 4392 ft | 193 kts | 168° |
| 2026-04-26 22:07 | 10.76281 | -61.53264 | 4170 ft | 197 kts | 168° |
| 2026-04-26 22:07 | 10.75376 | -61.53129 | 4007 ft | 199 kts | 169° |
| 2026-04-26 22:08 | 10.73541 | -61.52855 | 3673 ft | 201 kts | 168° |
| 2026-04-26 22:08 | 10.72152 | -61.52649 | 3420 ft | 201 kts | 168° |
| 2026-04-26 22:08 | 10.70788 | -61.52443 | 3192 ft | 194 kts | 167° |
| 2026-04-26 22:08 | 10.69521 | -61.52237 | 2992 ft | 175 kts | 169° |
| 2026-04-26 22:09 | 10.68304 | -61.52151 | 2759 ft | 177 kts | 176° |
| 2026-04-26 22:09 | 10.67067 | -61.52180 | 2582 ft | 178 kts | 179° |
| 2026-04-26 22:09 | 10.65844 | -61.52223 | 2418 ft | 178 kts | 179° |
| 2026-04-26 22:09 | 10.64593 | -61.52267 | 2242 ft | 177 kts | 178° |
| 2026-04-26 22:10 | 10.63360 | -61.52279 | 2093 ft | 176 kts | 178° |
| 2026-04-26 22:10 | 10.62153 | -61.52285 | 2006 ft | 172 kts | 176° |
| 2026-04-26 22:10 | 10.60990 | -61.52276 | 2000 ft | 164 kts | 172° |
| 2026-04-26 22:10 | 10.60070 | -61.51737 | 1981 ft | 154 kts | 121° |
| 2026-04-26 22:11 | 10.59732 | -61.50728 | 1976 ft | 148 kts | 103° |
| 2026-04-26 22:11 | 10.59558 | -61.49722 | 1973 ft | 142 kts | 97° |
| 2026-04-26 22:11 | 10.59479 | -61.48795 | 1953 ft | 120 kts | 94° |
| 2026-04-26 22:11 | 10.59464 | -61.47967 | 1912 ft | 120 kts | 90° |
| 2026-04-26 22:12 | 10.59474 | -61.47106 | 1899 ft | 123 kts | 91° |
| 2026-04-26 22:12 | 10.59465 | -61.46221 | 1840 ft | 125 kts | 91° |
| 2026-04-26 22:12 | 10.59477 | -61.45354 | 1734 ft | 123 kts | 89° |
| 2026-04-26 22:12 | 10.59513 | -61.44478 | 1552 ft | 127 kts | 86° |
| 2026-04-26 22:13 | 10.59544 | -61.43581 | 1356 ft | 128 kts | 89° |
| 2026-04-26 22:13 | 10.59568 | -61.42671 | 1196 ft | 125 kts | 90° |
| 2026-04-26 22:13 | 10.59567 | -61.41829 | 1118 ft | 118 kts | 89° |
| 2026-04-26 22:13 | 10.59562 | -61.40967 | 975 ft | 125 kts | 91° |
| 2026-04-26 22:14 | 10.59599 | -61.40094 | 891 ft | 122 kts | 88° |
| 2026-04-26 22:14 | 10.59604 | -61.39237 | 840 ft | 124 kts | 92° |
| 2026-04-26 22:14 | 10.59568 | -61.38354 | 749 ft | 127 kts | 94° |
| 2026-04-26 22:14 | 10.59532 | -61.37451 | 582 ft | 127 kts | 93° |
| 2026-04-26 22:15 | 10.59522 | -61.36567 | 326 ft | 123 kts | 89° |
| 2026-04-26 22:15 | 10.59532 | -61.35707 | 155 ft | 120 kts | 90° |
| 2026-04-26 22:15 | 10.59535 | -61.34881 | 42 ft | 114 kts | 90° |
| 2026-04-26 22:15 | 10.59533 | -61.34217 | 46 ft | 83 kts | 91° |
| 2026-04-26 22:16 | 10.59538 | -61.33749 | 50 ft | 40 kts | 89° |
| 2026-04-26 22:16 | 10.59563 | -61.33555 | 48 ft | 19 kts | 67° |
| 2026-04-26 22:16 | 10.59641 | -61.33461 | 52 ft | 16 kts | 35° |
| 2026-04-26 22:16 | 10.59709 | -61.33514 | 52 ft | 19 kts | 266° |
| 2026-04-26 22:17 | 10.59710 | -61.33661 | 50 ft | 23 kts | 270° |
| 2026-04-26 22:17 | 10.59708 | -61.33830 | 49 ft | 25 kts | 270° |
| 2026-04-26 22:17 | 10.59708 | -61.34011 | 47 ft | 22 kts | 270° |
| 2026-04-26 22:17 | 10.59707 | -61.34117 | 46 ft | 21 kts | 270° |
| 2026-04-26 22:18 | 10.59842 | -61.34175 | 43 ft | 18 kts | 358° |
| 2026-04-26 22:18 | 10.59930 | -61.34177 | 45 ft | 19 kts | 0° |
| 2026-04-26 22:18 | 10.60058 | -61.34171 | 44 ft | 17 kts | 18° |
| 2026-04-26 22:18 | 10.60061 | -61.34124 | 44 ft | 6 kts | 123° |
| 2026-04-26 22:19 | 10.60040 | -61.34102 | 46 ft | 0 kts | 136° |